This is the latest recevied weather packets stored in our database for station/object W4CPD. If no packets are shown the sender has not sent any weather packets the latest 10 day(s).
| Time | Temp. | Humidity | Pressure | Rain* | Wind** | Luminosity | Snow |
|---|---|---|---|---|---|---|---|
| 1777937115 | 25° C | 48% | 1016.2 hPa | 0 mm | - | - | - |
| 1777936816 | 25° C | 47% | 1016.1 hPa | 0 mm | - | - | - |
| 1777936540 | 25° C | 48% | 1016.2 hPa | 0 mm | - | - | - |
| 1777935915 | 25° C | 48% | 1016.2 hPa | 0 mm | - | - | - |
| 1777935628 | 25° C | 47% | 1016.3 hPa | 0 mm | - | - | - |
| 1777935315 | 25° C | 47% | 1016.3 hPa | 0 mm | - | - | - |
| 1777932615 | 25.56° C | 46% | 1016.4 hPa | 0 mm | - | - | - |
| 1777930514 | 26.11° C | 43% | 1016.2 hPa | 0 mm | - | - | - |
| 1777929014 | 26.67° C | 42% | 1016.5 hPa | 0 mm | - | - | - |
| 1777927815 | 27.22° C | 42% | 1016.3 hPa | 0 mm | - | - | - |
| 1777927528 | 27.22° C | 41% | 1016.3 hPa | 0 mm | - | - | - |
| 1777926913 | 27.22° C | 43% | 1016.3 hPa | 0 mm | - | - | - |
| 1777926633 | 27.22° C | 41% | 1016.5 hPa | 0 mm | - | - | - |
| 1777924215 | 27.78° C | 39% | 1016.7 hPa | 0 mm | - | - | - |
| 1777923317 | 27.78° C | 37% | 1016.9 hPa | 0 mm | - | - | - |
| 1777923032 | 27.78° C | 34% | 1016.9 hPa | 0 mm | - | - | - |
| 1777922715 | 27.78° C | 39% | 1016.8 hPa | 0 mm | - | - | - |
| 1777922416 | 27.22° C | 38% | 1017.1 hPa | 0 mm | - | - | - |
| 1777920014 | 26.11° C | 42% | 1017.7 hPa | 0 mm | - | - | - |
| 1777917313 | 25.56° C | 44% | 1018.1 hPa | 0 mm | - | - | - |
| 1777917014 | 25.56° C | 45% | 1018.1 hPa | 0 mm | - | - | - |
| 1777915829 | 25.56° C | 43% | 1018.4 hPa | 0 mm | - | - | - |
| 1777911346 | 23.89° C | 47% | 1018.8 hPa | 0 mm | - | - | - |
| 1777911013 | 23.89° C | 48% | 1018.8 hPa | 0 mm | - | - | - |
| 1777910712 | 23.89° C | 50% | 1018.8 hPa | 0 mm | - | - | - |
* Rain latest hour (hover to see other rain measurements)
** Current wind speed in m/s (hover to see current wind gust speed)